Pagina principale
METAR-TAF:

METAR-TAF

Aeroporti :

Aeroporto di Biggin Hill

Londra Biggin Hill, Inghilterra

latitudine: 51-19N, longitudine: 000-02E, altezza: 183 m

Osservazione

Il bollettino è stato emesso 8 ore e 38 minuti fa, alle 20:20 UTC
Vento 14 kt da nord/nord-est, variando fra nord e est/nord-est
Temperature 2°C
Umidità 60%
Pressione 1038 hPa
Visibilità 10 km o più
Poco nuvoloso ad un'altezza di 4400 ft

METAR: EGKB 292020Z 03014KT 350V070 9999 FEW044 02/M05 Q1038

Ora: 05:58 (04:58 UTC)

Previsione

Il bollettino è stato emesso 12 ore e 1 minuti fa, alle 16:57 UTC
Previsione valida dal 29 alle 18 UTC al 29 alle 21 UTC
Vento 22 kt da nord/nord-est con raffiche fino a 32 kt
Visibilità 10 km o più
Nubi sparse ad un'altezza di 2000 ft
Temporaneamente
dal 29 alle 18 UTC al 29 alle 21 UTC
Visibilità: 6000 m
rovesci di pioggia

TAF: EGKB 291657Z 2918/2921 02022G32KT 9999 SCT020 TEMPO 2918/2921 6000 SHRA

Osservazioni e previsioni meteorologiche di più di 4000 aeroporti (messaggi METAR e TAF).

Le stazioni disponibili sono rappresentate dai dischi gialli e rossi sulla carta.

Puntare il mouse per vedere il nome della stazione.

Clicca sopra per visualizzare le osservazioni e previsioni meteorologiche.

Per cambiare la mappa : fare clic sui pulsanti verdi con una croce nera per ingrandire, il pulsante verde con un trattino per diminuire, o sulla freccia verde per le mappe adiacenti.


METAR-TAF: